Summer? Really?

TAF EGDL 200729Z 2009/2103 20012KT 9999 BKN006
        BECMG 2009/2012 20015G25KT BKN010 PROB30 
        TEMPO 2011/2014 6000 RA SCT006 BKN010
        TEMPO 2014/2017 BKN015
        BECMG 2017/2019 20012KT BKN006
        BECMG 2019/2022 BKN004 PROB30 
        TEMPO 2022/2103 4000 -DZ BKN002

Bit of everything in that forecast, but not a pleasant flying prospect particularly. No go for today.

Advertisements

Leave a Reply

Please log in using one of these methods to post your comment:

WordPress.com Logo

You are commenting using your WordPress.com account. Log Out / Change )

Twitter picture

You are commenting using your Twitter account. Log Out / Change )

Facebook photo

You are commenting using your Facebook account. Log Out / Change )

Google+ photo

You are commenting using your Google+ account. Log Out / Change )

Connecting to %s


%d bloggers like this: